sensor_id;sensor_type;location;lat;lon;timestamp;temperature;humidity
11126;DHT22;5617;54.046;10.676;2023-02-07T00:00:54;-0.80;99.90
11126;DHT22;5617;54.046;10.676;2023-02-07T00:03:02;-1.00;99.90
11126;DHT22;5617;54.046;10.676;2023-02-07T00:05:10;-1.00;99.90
11126;DHT22;5617;54.046;10.676;2023-02-07T00:07:19;-1.00;99.90
11126;DHT22;5617;54.046;10.676;2023-02-07T00:09:27;-1.00;99.90
11126;DHT22;5617;54.046;10.676;2023-02-07T00:11:35;-0.90;99.90
11126;DHT22;5617;54.046;10.676;2023-02-07T00:13:50;-0.90;99.90
11126;DHT22;5617;54.046;10.676;2023-02-07T00:15:58;-0.90;99.90
11126;DHT22;5617;54.046;10.676;2023-02-07T00:18:06;-0.90;99.90
11126;DHT22;5617;54.046;10.676;2023-02-07T00:20:13;-0.80;99.90
11126;DHT22;5617;54.046;10.676;2023-02-07T00:22:24;-0.80;99.90
11126;DHT22;5617;54.046;10.676;2023-02-07T00:24:31;-0.80;99.90
11126;DHT22;5617;54.046;10.676;2023-02-07T00:26:39;-0.80;99.90
11126;DHT22;5617;54.046;10.676;2023-02-07T00:28:47;-0.80;99.90
11126;DHT22;5617;54.046;10.676;2023-02-07T00:31:02;-0.80;99.90
11126;DHT22;5617;54.046;10.676;2023-02-07T00:33:09;-0.80;99.90
11126;DHT22;5617;54.046;10.676;2023-02-07T00:35:17;-0.80;99.90
11126;DHT22;5617;54.046;10.676;2023-02-07T00:37:26;-0.80;99.90
11126;DHT22;5617;54.046;10.676;2023-02-07T00:39:35;-0.80;99.90
11126;DHT22;5617;54.046;10.676;2023-02-07T00:41:44;-0.70;99.90
11126;DHT22;5617;54.046;10.676;2023-02-07T00:43:52;-0.80;99.90
11126;DHT22;5617;54.046;10.676;2023-02-07T00:46:02;-0.80;99.90
11126;DHT22;5617;54.046;10.676;2023-02-07T00:48:10;-0.80;99.90
11126;DHT22;5617;54.046;10.676;2023-02-07T00:50:18;-0.80;99.90
11126;DHT22;5617;54.046;10.676;2023-02-07T00:52:27;-0.80;99.90
11126;DHT22;5617;54.046;10.676;2023-02-07T00:54:35;-0.80;99.90
11126;DHT22;5617;54.046;10.676;2023-02-07T00:56:42;-0.80;99.90
11126;DHT22;5617;54.046;10.676;2023-02-07T00:58:50;-0.80;99.90
11126;DHT22;5617;54.046;10.676;2023-02-07T01:00:57;-0.80;99.90
11126;DHT22;5617;54.046;10.676;2023-02-07T01:03:05;-0.80;99.90
11126;DHT22;5617;54.046;10.676;2023-02-07T01:05:13;-0.70;99.90
11126;DHT22;5617;54.046;10.676;2023-02-07T01:07:20;-0.70;99.90
11126;DHT22;5617;54.046;10.676;2023-02-07T01:09:29;-0.70;99.90
11126;DHT22;5617;54.046;10.676;2023-02-07T01:11:37;-0.60;99.90
11126;DHT22;5617;54.046;10.676;2023-02-07T01:13:44;-0.80;99.90
11126;DHT22;5617;54.046;10.676;2023-02-07T01:15:52;-0.70;99.90
11126;DHT22;5617;54.046;10.676;2023-02-07T01:18:00;-0.70;99.90
11126;DHT22;5617;54.046;10.676;2023-02-07T01:20:08;-0.80;99.90
11126;DHT22;5617;54.046;10.676;2023-02-07T01:22:16;-0.80;99.90
11126;DHT22;5617;54.046;10.676;2023-02-07T01:24:24;-0.80;99.90
11126;DHT22;5617;54.046;10.676;2023-02-07T01:26:33;-0.60;99.90
11126;DHT22;5617;54.046;10.676;2023-02-07T01:28:41;-0.70;99.90
11126;DHT22;5617;54.046;10.676;2023-02-07T01:30:49;-0.70;99.90
11126;DHT22;5617;54.046;10.676;2023-02-07T01:32:56;-0.70;99.90
11126;DHT22;5617;54.046;10.676;2023-02-07T01:35:04;-0.70;99.90
11126;DHT22;5617;54.046;10.676;2023-02-07T01:37:12;-0.70;99.90
11126;DHT22;5617;54.046;10.676;2023-02-07T01:39:20;-0.70;99.90
11126;DHT22;5617;54.046;10.676;2023-02-07T01:41:28;-0.70;99.90
11126;DHT22;5617;54.046;10.676;2023-02-07T01:43:53;-0.70;99.90
11126;DHT22;5617;54.046;10.676;2023-02-07T01:46:01;-0.70;99.90
11126;DHT22;5617;54.046;10.676;2023-02-07T01:48:17;-0.70;99.90
11126;DHT22;5617;54.046;10.676;2023-02-07T01:50:26;-0.70;99.90
11126;DHT22;5617;54.046;10.676;2023-02-07T01:52:37;-0.70;99.90
11126;DHT22;5617;54.046;10.676;2023-02-07T01:54:50;-0.70;99.90
11126;DHT22;5617;54.046;10.676;2023-02-07T01:57:04;-0.70;99.90
11126;DHT22;5617;54.046;10.676;2023-02-07T01:59:14;-0.80;99.90
11126;DHT22;5617;54.046;10.676;2023-02-07T02:01:23;-0.80;99.90
11126;DHT22;5617;54.046;10.676;2023-02-07T02:03:32;-0.80;99.90
11126;DHT22;5617;54.046;10.676;2023-02-07T02:05:42;-0.80;99.90
11126;DHT22;5617;54.046;10.676;2023-02-07T02:07:50;-0.80;99.90
11126;DHT22;5617;54.046;10.676;2023-02-07T02:09:58;-0.80;99.90
11126;DHT22;5617;54.046;10.676;2023-02-07T02:15:23;-0.90;99.90
11126;DHT22;5617;54.046;10.676;2023-02-07T02:17:46;-0.90;99.90
11126;DHT22;5617;54.046;10.676;2023-02-07T02:23:00;-0.90;99.90
11126;DHT22;5617;54.046;10.676;2023-02-07T02:28:20;-1.00;99.90
11126;DHT22;5617;54.046;10.676;2023-02-07T02:30:45;-1.00;99.90
11126;DHT22;5617;54.046;10.676;2023-02-07T02:33:17;-1.00;99.90
11126;DHT22;5617;54.046;10.676;2023-02-07T02:35:31;-1.00;99.90
11126;DHT22;5617;54.046;10.676;2023-02-07T02:37:45;-1.00;99.90
11126;DHT22;5617;54.046;10.676;2023-02-07T02:40:01;-1.00;99.90
11126;DHT22;5617;54.046;10.676;2023-02-07T02:42:17;-1.00;99.90
11126;DHT22;5617;54.046;10.676;2023-02-07T02:44:29;-1.00;99.90
11126;DHT22;5617;54.046;10.676;2023-02-07T02:46:39;-1.00;99.90
11126;DHT22;5617;54.046;10.676;2023-02-07T02:48:49;-1.00;99.90
11126;DHT22;5617;54.046;10.676;2023-02-07T02:50:58;-1.00;99.90
11126;DHT22;5617;54.046;10.676;2023-02-07T02:53:06;-1.00;99.90
11126;DHT22;5617;54.046;10.676;2023-02-07T02:55:13;-1.00;99.90
11126;DHT22;5617;54.046;10.676;2023-02-07T02:57:37;-1.00;99.90
11126;DHT22;5617;54.046;10.676;2023-02-07T03:00:06;-1.00;99.90
11126;DHT22;5617;54.046;10.676;2023-02-07T03:02:22;-1.00;99.90
11126;DHT22;5617;54.046;10.676;2023-02-07T03:04:59;-1.00;99.90
11126;DHT22;5617;54.046;10.676;2023-02-07T03:07:20;-1.10;99.90
11126;DHT22;5617;54.046;10.676;2023-02-07T03:09:43;-1.10;99.90
11126;DHT22;5617;54.046;10.676;2023-02-07T03:11:56;-1.10;99.90
11126;DHT22;5617;54.046;10.676;2023-02-07T03:14:11;-1.10;99.90
11126;DHT22;5617;54.046;10.676;2023-02-07T03:16:28;-1.10;99.90
11126;DHT22;5617;54.046;10.676;2023-02-07T03:18:44;-1.10;99.90
11126;DHT22;5617;54.046;10.676;2023-02-07T03:20:59;-1.10;99.90
11126;DHT22;5617;54.046;10.676;2023-02-07T03:23:09;-1.10;99.90
11126;DHT22;5617;54.046;10.676;2023-02-07T03:25:19;-1.10;99.90
11126;DHT22;5617;54.046;10.676;2023-02-07T03:27:29;-1.10;99.90
11126;DHT22;5617;54.046;10.676;2023-02-07T03:29:38;-1.10;99.90
11126;DHT22;5617;54.046;10.676;2023-02-07T03:31:50;-1.10;99.90
11126;DHT22;5617;54.046;10.676;2023-02-07T03:34:05;-1.10;99.90
11126;DHT22;5617;54.046;10.676;2023-02-07T03:36:21;-1.10;99.90
11126;DHT22;5617;54.046;10.676;2023-02-07T03:38:29;-1.10;99.90
11126;DHT22;5617;54.046;10.676;2023-02-07T03:40:41;-1.00;99.90
11126;DHT22;5617;54.046;10.676;2023-02-07T03:42:52;-1.10;99.90
11126;DHT22;5617;54.046;10.676;2023-02-07T03:45:01;-1.20;99.90
11126;DHT22;5617;54.046;10.676;2023-02-07T03:47:10;-1.20;99.90
11126;DHT22;5617;54.046;10.676;2023-02-07T03:49:18;-1.20;99.90
11126;DHT22;5617;54.046;10.676;2023-02-07T03:51:27;-1.20;99.90
11126;DHT22;5617;54.046;10.676;2023-02-07T03:53:34;-1.20;99.90
11126;DHT22;5617;54.046;10.676;2023-02-07T03:55:42;-1.10;99.90
11126;DHT22;5617;54.046;10.676;2023-02-07T03:57:49;-1.20;99.90
11126;DHT22;5617;54.046;10.676;2023-02-07T03:59:57;-1.20;99.90
11126;DHT22;5617;54.046;10.676;2023-02-07T04:02:04;-1.20;99.90
11126;DHT22;5617;54.046;10.676;2023-02-07T04:04:12;-1.20;99.90
11126;DHT22;5617;54.046;10.676;2023-02-07T04:06:20;-1.20;99.90
11126;DHT22;5617;54.046;10.676;2023-02-07T04:08:29;-1.20;99.90
11126;DHT22;5617;54.046;10.676;2023-02-07T04:10:37;-1.30;99.90
11126;DHT22;5617;54.046;10.676;2023-02-07T04:12:45;-1.30;99.90
11126;DHT22;5617;54.046;10.676;2023-02-07T04:14:52;-1.40;99.90
11126;DHT22;5617;54.046;10.676;2023-02-07T04:17:00;-1.50;99.90
11126;DHT22;5617;54.046;10.676;2023-02-07T04:19:07;-1.50;99.90
11126;DHT22;5617;54.046;10.676;2023-02-07T04:21:15;-1.50;99.90
11126;DHT22;5617;54.046;10.676;2023-02-07T04:23:23;-1.40;99.90
11126;DHT22;5617;54.046;10.676;2023-02-07T04:25:32;-1.50;99.90
11126;DHT22;5617;54.046;10.676;2023-02-07T04:27:40;-1.50;99.90
11126;DHT22;5617;54.046;10.676;2023-02-07T04:29:47;-1.50;99.90
11126;DHT22;5617;54.046;10.676;2023-02-07T04:31:55;-1.50;99.90
11126;DHT22;5617;54.046;10.676;2023-02-07T04:34:02;-1.40;99.90
11126;DHT22;5617;54.046;10.676;2023-02-07T04:36:11;-1.60;99.90
11126;DHT22;5617;54.046;10.676;2023-02-07T04:38:18;-1.60;99.90
11126;DHT22;5617;54.046;10.676;2023-02-07T04:40:26;-1.60;99.90
11126;DHT22;5617;54.046;10.676;2023-02-07T04:42:35;-1.50;99.90
11126;DHT22;5617;54.046;10.676;2023-02-07T04:44:43;-1.60;99.90
11126;DHT22;5617;54.046;10.676;2023-02-07T04:46:50;-1.60;99.90
11126;DHT22;5617;54.046;10.676;2023-02-07T04:48:58;-1.70;99.90
11126;DHT22;5617;54.046;10.676;2023-02-07T04:51:06;-1.70;99.90
11126;DHT22;5617;54.046;10.676;2023-02-07T04:53:14;-1.70;99.90
11126;DHT22;5617;54.046;10.676;2023-02-07T04:55:21;-1.70;99.90
11126;DHT22;5617;54.046;10.676;2023-02-07T04:57:29;-1.80;99.90
11126;DHT22;5617;54.046;10.676;2023-02-07T04:59:38;-1.80;99.90
11126;DHT22;5617;54.046;10.676;2023-02-07T05:01:45;-1.90;99.90
11126;DHT22;5617;54.046;10.676;2023-02-07T05:03:53;-1.80;99.90
11126;DHT22;5617;54.046;10.676;2023-02-07T05:06:01;-1.90;99.90
11126;DHT22;5617;54.046;10.676;2023-02-07T05:08:09;-1.90;99.90
11126;DHT22;5617;54.046;10.676;2023-02-07T05:10:17;-1.90;99.90
11126;DHT22;5617;54.046;10.676;2023-02-07T05:12:24;-1.90;99.90
11126;DHT22;5617;54.046;10.676;2023-02-07T05:14:32;-1.90;99.90
11126;DHT22;5617;54.046;10.676;2023-02-07T05:16:41;-1.90;99.90
11126;DHT22;5617;54.046;10.676;2023-02-07T05:18:48;-2.00;99.90
11126;DHT22;5617;54.046;10.676;2023-02-07T05:20:57;-2.00;99.90
11126;DHT22;5617;54.046;10.676;2023-02-07T05:23:05;-2.00;99.90
11126;DHT22;5617;54.046;10.676;2023-02-07T05:25:12;-2.00;99.90
11126;DHT22;5617;54.046;10.676;2023-02-07T05:27:20;-2.00;99.90
11126;DHT22;5617;54.046;10.676;2023-02-07T05:29:27;-2.00;99.90
11126;DHT22;5617;54.046;10.676;2023-02-07T05:31:35;-2.10;99.90
11126;DHT22;5617;54.046;10.676;2023-02-07T05:34:01;-2.10;99.90
11126;DHT22;5617;54.046;10.676;2023-02-07T05:36:09;-2.10;99.90
11126;DHT22;5617;54.046;10.676;2023-02-07T05:38:18;-2.10;99.90
11126;DHT22;5617;54.046;10.676;2023-02-07T05:40:26;-2.10;99.90
11126;DHT22;5617;54.046;10.676;2023-02-07T05:42:34;-2.10;99.90
11126;DHT22;5617;54.046;10.676;2023-02-07T05:44:41;-2.20;99.90
11126;DHT22;5617;54.046;10.676;2023-02-07T05:46:49;-2.20;99.90
11126;DHT22;5617;54.046;10.676;2023-02-07T05:48:57;-2.20;99.90
11126;DHT22;5617;54.046;10.676;2023-02-07T05:51:06;-2.20;99.90
11126;DHT22;5617;54.046;10.676;2023-02-07T05:53:14;-2.30;99.90
11126;DHT22;5617;54.046;10.676;2023-02-07T05:55:21;-2.30;99.90
11126;DHT22;5617;54.046;10.676;2023-02-07T05:57:29;-2.20;99.90
11126;DHT22;5617;54.046;10.676;2023-02-07T05:59:37;-2.30;99.90
11126;DHT22;5617;54.046;10.676;2023-02-07T06:01:44;-2.20;99.90
11126;DHT22;5617;54.046;10.676;2023-02-07T06:03:52;-2.30;99.90
11126;DHT22;5617;54.046;10.676;2023-02-07T06:05:59;-2.20;99.90
11126;DHT22;5617;54.046;10.676;2023-02-07T06:08:08;-2.30;99.90
11126;DHT22;5617;54.046;10.676;2023-02-07T06:10:16;-2.30;99.90
11126;DHT22;5617;54.046;10.676;2023-02-07T06:12:23;-2.40;99.90
11126;DHT22;5617;54.046;10.676;2023-02-07T06:14:31;-2.40;99.90
11126;DHT22;5617;54.046;10.676;2023-02-07T06:16:39;-2.40;99.90
11126;DHT22;5617;54.046;10.676;2023-02-07T06:18:46;-2.40;99.90
11126;DHT22;5617;54.046;10.676;2023-02-07T06:20:54;-2.40;99.90
11126;DHT22;5617;54.046;10.676;2023-02-07T06:23:01;-2.40;99.90
11126;DHT22;5617;54.046;10.676;2023-02-07T06:25:10;-2.40;99.90
11126;DHT22;5617;54.046;10.676;2023-02-07T06:27:18;-2.40;99.90
11126;DHT22;5617;54.046;10.676;2023-02-07T06:29:26;-2.40;99.90
11126;DHT22;5617;54.046;10.676;2023-02-07T06:31:33;-2.40;99.90
11126;DHT22;5617;54.046;10.676;2023-02-07T06:33:41;-2.40;99.90
11126;DHT22;5617;54.046;10.676;2023-02-07T06:35:49;-2.40;99.90
11126;DHT22;5617;54.046;10.676;2023-02-07T06:37:57;-2.40;99.90
11126;DHT22;5617;54.046;10.676;2023-02-07T06:40:05;-2.40;99.90
11126;DHT22;5617;54.046;10.676;2023-02-07T06:42:14;-2.40;99.90
11126;DHT22;5617;54.046;10.676;2023-02-07T06:44:22;-2.40;99.90
11126;DHT22;5617;54.046;10.676;2023-02-07T06:46:30;-2.40;99.90
11126;DHT22;5617;54.046;10.676;2023-02-07T06:48:38;-2.40;99.90
11126;DHT22;5617;54.046;10.676;2023-02-07T06:50:48;-2.40;99.90
11126;DHT22;5617;54.046;10.676;2023-02-07T06:52:56;-2.40;99.90
11126;DHT22;5617;54.046;10.676;2023-02-07T06:55:07;-2.40;99.90
11126;DHT22;5617;54.046;10.676;2023-02-07T06:57:16;-2.40;99.90
11126;DHT22;5617;54.046;10.676;2023-02-07T06:59:24;-2.40;99.90
11126;DHT22;5617;54.046;10.676;2023-02-07T07:01:31;-2.40;99.90
11126;DHT22;5617;54.046;10.676;2023-02-07T07:03:39;-2.40;99.90
11126;DHT22;5617;54.046;10.676;2023-02-07T07:05:47;-2.40;99.90
11126;DHT22;5617;54.046;10.676;2023-02-07T07:07:55;-2.40;99.90
11126;DHT22;5617;54.046;10.676;2023-02-07T07:10:04;-2.40;99.90
11126;DHT22;5617;54.046;10.676;2023-02-07T07:12:11;-2.50;99.90
11126;DHT22;5617;54.046;10.676;2023-02-07T07:14:20;-2.40;99.90
11126;DHT22;5617;54.046;10.676;2023-02-07T07:16:28;-2.50;99.90
11126;DHT22;5617;54.046;10.676;2023-02-07T07:18:36;-2.40;99.90
11126;DHT22;5617;54.046;10.676;2023-02-07T07:20:44;-2.40;99.90
11126;DHT22;5617;54.046;10.676;2023-02-07T07:22:51;-2.40;99.90
11126;DHT22;5617;54.046;10.676;2023-02-07T07:24:59;-2.30;99.90
11126;DHT22;5617;54.046;10.676;2023-02-07T07:27:07;-2.40;99.90
11126;DHT22;5617;54.046;10.676;2023-02-07T07:29:15;-2.40;99.90
11126;DHT22;5617;54.046;10.676;2023-02-07T07:31:23;-2.40;99.90
11126;DHT22;5617;54.046;10.676;2023-02-07T07:33:31;-2.40;99.90
11126;DHT22;5617;54.046;10.676;2023-02-07T07:35:39;-2.30;99.90
11126;DHT22;5617;54.046;10.676;2023-02-07T07:37:47;-2.40;99.90
11126;DHT22;5617;54.046;10.676;2023-02-07T07:39:54;-2.40;99.90
11126;DHT22;5617;54.046;10.676;2023-02-07T07:42:02;-2.40;99.90
11126;DHT22;5617;54.046;10.676;2023-02-07T07:44:09;-2.30;99.90
11126;DHT22;5617;54.046;10.676;2023-02-07T07:46:17;-2.20;99.90
11126;DHT22;5617;54.046;10.676;2023-02-07T07:48:27;-2.30;99.90
11126;DHT22;5617;54.046;10.676;2023-02-07T07:50:35;-2.20;99.90
11126;DHT22;5617;54.046;10.676;2023-02-07T07:52:43;-2.10;99.90
11126;DHT22;5617;54.046;10.676;2023-02-07T07:54:50;-2.20;99.90
11126;DHT22;5617;54.046;10.676;2023-02-07T07:56:58;-2.00;99.90
11126;DHT22;5617;54.046;10.676;2023-02-07T07:59:06;-2.10;99.90
11126;DHT22;5617;54.046;10.676;2023-02-07T08:01:14;-2.00;99.90
11126;DHT22;5617;54.046;10.676;2023-02-07T08:03:22;-1.90;99.90
11126;DHT22;5617;54.046;10.676;2023-02-07T08:05:31;-1.80;99.90
11126;DHT22;5617;54.046;10.676;2023-02-07T08:07:39;-1.80;99.90
11126;DHT22;5617;54.046;10.676;2023-02-07T08:09:46;-1.70;99.90
11126;DHT22;5617;54.046;10.676;2023-02-07T08:11:54;-1.60;99.90
11126;DHT22;5617;54.046;10.676;2023-02-07T08:14:02;-1.50;99.90
11126;DHT22;5617;54.046;10.676;2023-02-07T08:16:09;-1.40;99.90
11126;DHT22;5617;54.046;10.676;2023-02-07T08:18:17;-1.30;99.90
11126;DHT22;5617;54.046;10.676;2023-02-07T08:20:25;-1.20;99.90
11126;DHT22;5617;54.046;10.676;2023-02-07T08:22:34;-1.20;99.90
11126;DHT22;5617;54.046;10.676;2023-02-07T08:24:42;-1.00;99.90
11126;DHT22;5617;54.046;10.676;2023-02-07T08:26:49;-0.90;99.90
11126;DHT22;5617;54.046;10.676;2023-02-07T08:28:57;-0.90;99.90
11126;DHT22;5617;54.046;10.676;2023-02-07T08:31:05;-0.80;99.90
11126;DHT22;5617;54.046;10.676;2023-02-07T08:33:13;-0.70;99.90
11126;DHT22;5617;54.046;10.676;2023-02-07T08:35:21;-0.60;99.90
11126;DHT22;5617;54.046;10.676;2023-02-07T08:37:28;-0.60;99.90
11126;DHT22;5617;54.046;10.676;2023-02-07T08:39:37;-0.50;99.90
11126;DHT22;5617;54.046;10.676;2023-02-07T08:41:45;-0.30;99.90
11126;DHT22;5617;54.046;10.676;2023-02-07T08:43:53;-0.30;99.90
11126;DHT22;5617;54.046;10.676;2023-02-07T08:46:00;-0.20;99.90
11126;DHT22;5617;54.046;10.676;2023-02-07T08:48:09;-0.10;99.90
11126;DHT22;5617;54.046;10.676;2023-02-07T08:50:17;-0.10;99.90
11126;DHT22;5617;54.046;10.676;2023-02-07T08:52:25;0.10;99.90
11126;DHT22;5617;54.046;10.676;2023-02-07T08:54:33;0.10;99.90
11126;DHT22;5617;54.046;10.676;2023-02-07T08:56:42;0.20;99.90
11126;DHT22;5617;54.046;10.676;2023-02-07T08:58:50;0.30;99.90
11126;DHT22;5617;54.046;10.676;2023-02-07T09:00:58;0.40;99.90
11126;DHT22;5617;54.046;10.676;2023-02-07T09:03:05;0.60;99.90
11126;DHT22;5617;54.046;10.676;2023-02-07T09:05:13;0.70;99.90
11126;DHT22;5617;54.046;10.676;2023-02-07T09:07:21;0.70;99.90
11126;DHT22;5617;54.046;10.676;2023-02-07T09:09:31;0.90;99.90
11126;DHT22;5617;54.046;10.676;2023-02-07T09:11:39;0.90;99.90
11126;DHT22;5617;54.046;10.676;2023-02-07T09:13:48;1.10;99.90
11126;DHT22;5617;54.046;10.676;2023-02-07T09:15:57;1.20;99.90
11126;DHT22;5617;54.046;10.676;2023-02-07T09:18:05;1.30;99.90
11126;DHT22;5617;54.046;10.676;2023-02-07T09:20:13;1.40;99.90
11126;DHT22;5617;54.046;10.676;2023-02-07T09:22:20;1.50;99.90
11126;DHT22;5617;54.046;10.676;2023-02-07T09:24:28;1.50;99.90
11126;DHT22;5617;54.046;10.676;2023-02-07T09:26:36;1.60;99.90
11126;DHT22;5617;54.046;10.676;2023-02-07T09:28:44;1.80;99.90
11126;DHT22;5617;54.046;10.676;2023-02-07T09:30:53;1.80;99.90
11126;DHT22;5617;54.046;10.676;2023-02-07T09:33:01;1.90;99.90
11126;DHT22;5617;54.046;10.676;2023-02-07T09:35:09;2.00;99.90
11126;DHT22;5617;54.046;10.676;2023-02-07T09:37:16;2.10;99.90
11126;DHT22;5617;54.046;10.676;2023-02-07T09:39:24;2.20;99.90
11126;DHT22;5617;54.046;10.676;2023-02-07T09:41:38;2.20;99.90
11126;DHT22;5617;54.046;10.676;2023-02-07T09:43:58;2.20;99.90
11126;DHT22;5617;54.046;10.676;2023-02-07T09:46:17;2.30;99.90
11126;DHT22;5617;54.046;10.676;2023-02-07T09:48:29;2.40;99.90
11126;DHT22;5617;54.046;10.676;2023-02-07T09:50:42;2.50;99.90
11126;DHT22;5617;54.046;10.676;2023-02-07T09:52:54;2.50;99.90
11126;DHT22;5617;54.046;10.676;2023-02-07T09:55:03;2.60;99.90
11126;DHT22;5617;54.046;10.676;2023-02-07T09:57:15;2.60;99.90
11126;DHT22;5617;54.046;10.676;2023-02-07T09:59:29;2.70;99.90
11126;DHT22;5617;54.046;10.676;2023-02-07T10:01:42;2.70;99.90
11126;DHT22;5617;54.046;10.676;2023-02-07T10:03:58;2.80;99.90
11126;DHT22;5617;54.046;10.676;2023-02-07T10:06:14;2.90;99.90
11126;DHT22;5617;54.046;10.676;2023-02-07T10:08:25;2.90;99.90
11126;DHT22;5617;54.046;10.676;2023-02-07T10:10:38;3.00;99.90
11126;DHT22;5617;54.046;10.676;2023-02-07T10:13:02;3.10;99.90
11126;DHT22;5617;54.046;10.676;2023-02-07T10:15:22;3.10;99.90
11126;DHT22;5617;54.046;10.676;2023-02-07T10:17:45;3.20;99.90
11126;DHT22;5617;54.046;10.676;2023-02-07T10:20:05;3.20;99.90
11126;DHT22;5617;54.046;10.676;2023-02-07T10:22:25;3.30;99.90
11126;DHT22;5617;54.046;10.676;2023-02-07T10:24:49;3.30;99.90
11126;DHT22;5617;54.046;10.676;2023-02-07T10:27:08;3.30;99.90
11126;DHT22;5617;54.046;10.676;2023-02-07T10:29:31;3.40;99.90
11126;DHT22;5617;54.046;10.676;2023-02-07T10:31:45;3.40;99.90
11126;DHT22;5617;54.046;10.676;2023-02-07T10:33:59;3.40;99.90
11126;DHT22;5617;54.046;10.676;2023-02-07T10:36:13;3.40;99.90
11126;DHT22;5617;54.046;10.676;2023-02-07T10:38:26;3.50;99.90
11126;DHT22;5617;54.046;10.676;2023-02-07T10:40:40;3.50;99.90
11126;DHT22;5617;54.046;10.676;2023-02-07T10:42:52;3.70;99.90
11126;DHT22;5617;54.046;10.676;2023-02-07T10:45:01;3.60;99.90
11126;DHT22;5617;54.046;10.676;2023-02-07T10:47:14;3.70;99.90
11126;DHT22;5617;54.046;10.676;2023-02-07T10:49:25;3.80;99.90
11126;DHT22;5617;54.046;10.676;2023-02-07T10:51:35;3.90;99.90
11126;DHT22;5617;54.046;10.676;2023-02-07T10:53:45;3.90;99.90
11126;DHT22;5617;54.046;10.676;2023-02-07T10:55:53;3.90;99.90
11126;DHT22;5617;54.046;10.676;2023-02-07T10:58:00;4.00;99.90
11126;DHT22;5617;54.046;10.676;2023-02-07T11:00:21;4.00;99.90
11126;DHT22;5617;54.046;10.676;2023-02-07T11:02:47;4.10;99.90
11126;DHT22;5617;54.046;10.676;2023-02-07T11:04:58;4.10;99.90
11126;DHT22;5617;54.046;10.676;2023-02-07T11:07:06;4.20;99.90
11126;DHT22;5617;54.046;10.676;2023-02-07T11:09:20;4.20;99.90
11126;DHT22;5617;54.046;10.676;2023-02-07T11:11:30;4.20;99.90
11126;DHT22;5617;54.046;10.676;2023-02-07T11:13:46;4.20;99.90
11126;DHT22;5617;54.046;10.676;2023-02-07T11:15:58;4.30;99.90
11126;DHT22;5617;54.046;10.676;2023-02-07T11:18:28;4.30;99.90
11126;DHT22;5617;54.046;10.676;2023-02-07T11:20:40;4.40;99.90
11126;DHT22;5617;54.046;10.676;2023-02-07T11:22:50;4.30;99.90
11126;DHT22;5617;54.046;10.676;2023-02-07T11:25:02;4.30;99.90
11126;DHT22;5617;54.046;10.676;2023-02-07T11:27:14;4.30;99.90
11126;DHT22;5617;54.046;10.676;2023-02-07T11:29:23;4.40;99.90
11126;DHT22;5617;54.046;10.676;2023-02-07T11:31:34;4.50;99.90
11126;DHT22;5617;54.046;10.676;2023-02-07T11:33:42;4.50;99.90
11126;DHT22;5617;54.046;10.676;2023-02-07T11:36:06;4.60;99.90
11126;DHT22;5617;54.046;10.676;2023-02-07T11:38:17;4.60;99.90
11126;DHT22;5617;54.046;10.676;2023-02-07T11:40:28;4.60;99.90
11126;DHT22;5617;54.046;10.676;2023-02-07T11:42:35;4.70;99.90
11126;DHT22;5617;54.046;10.676;2023-02-07T11:44:45;4.70;99.90
11126;DHT22;5617;54.046;10.676;2023-02-07T11:46:55;4.80;99.90
11126;DHT22;5617;54.046;10.676;2023-02-07T11:49:05;4.80;99.90
11126;DHT22;5617;54.046;10.676;2023-02-07T11:51:16;4.80;99.90
11126;DHT22;5617;54.046;10.676;2023-02-07T11:53:27;4.70;99.90
11126;DHT22;5617;54.046;10.676;2023-02-07T11:55:40;4.80;99.90
11126;DHT22;5617;54.046;10.676;2023-02-07T11:57:48;4.80;99.90
11126;DHT22;5617;54.046;10.676;2023-02-07T12:00:03;4.90;99.90
11126;DHT22;5617;54.046;10.676;2023-02-07T12:02:16;4.80;99.90
11126;DHT22;5617;54.046;10.676;2023-02-07T12:04:27;4.90;99.90
11126;DHT22;5617;54.046;10.676;2023-02-07T12:06:41;5.00;99.90
11126;DHT22;5617;54.046;10.676;2023-02-07T12:08:50;5.10;99.90
11126;DHT22;5617;54.046;10.676;2023-02-07T12:11:01;5.20;99.90
11126;DHT22;5617;54.046;10.676;2023-02-07T12:13:12;5.20;99.90
11126;DHT22;5617;54.046;10.676;2023-02-07T12:15:26;5.30;99.90
11126;DHT22;5617;54.046;10.676;2023-02-07T12:17:40;5.40;99.90
11126;DHT22;5617;54.046;10.676;2023-02-07T12:19:53;5.40;99.90
11126;DHT22;5617;54.046;10.676;2023-02-07T12:22:09;5.30;99.90
11126;DHT22;5617;54.046;10.676;2023-02-07T12:24:22;5.20;99.90
11126;DHT22;5617;54.046;10.676;2023-02-07T12:26:32;5.20;99.90
11126;DHT22;5617;54.046;10.676;2023-02-07T12:28:48;5.20;99.90
11126;DHT22;5617;54.046;10.676;2023-02-07T12:31:01;5.20;99.90
11126;DHT22;5617;54.046;10.676;2023-02-07T12:33:17;5.10;99.90
11126;DHT22;5617;54.046;10.676;2023-02-07T12:35:29;5.10;99.90
11126;DHT22;5617;54.046;10.676;2023-02-07T12:37:45;5.00;99.90
11126;DHT22;5617;54.046;10.676;2023-02-07T12:40:02;5.00;99.90
11126;DHT22;5617;54.046;10.676;2023-02-07T12:42:22;5.10;99.90
11126;DHT22;5617;54.046;10.676;2023-02-07T12:44:36;5.00;99.90
11126;DHT22;5617;54.046;10.676;2023-02-07T12:46:56;5.00;99.90
11126;DHT22;5617;54.046;10.676;2023-02-07T12:49:26;5.00;99.90
11126;DHT22;5617;54.046;10.676;2023-02-07T12:51:43;5.10;99.90
11126;DHT22;5617;54.046;10.676;2023-02-07T12:54:16;5.10;99.90
11126;DHT22;5617;54.046;10.676;2023-02-07T12:56:36;4.90;99.90
11126;DHT22;5617;54.046;10.676;2023-02-07T12:58:51;4.90;99.90
11126;DHT22;5617;54.046;10.676;2023-02-07T13:01:06;4.90;99.90
11126;DHT22;5617;54.046;10.676;2023-02-07T13:03:21;4.90;99.90
11126;DHT22;5617;54.046;10.676;2023-02-07T13:08:13;4.70;99.90
11126;DHT22;5617;54.046;10.676;2023-02-07T13:10:30;4.70;99.90
11126;DHT22;5617;54.046;10.676;2023-02-07T13:12:48;4.80;99.90
11126;DHT22;5617;54.046;10.676;2023-02-07T13:15:04;4.90;99.90
11126;DHT22;5617;54.046;10.676;2023-02-07T13:17:28;4.80;99.90
11126;DHT22;5617;54.046;10.676;2023-02-07T13:19:46;4.80;99.90
11126;DHT22;5617;54.046;10.676;2023-02-07T13:21:58;4.80;99.90
11126;DHT22;5617;54.046;10.676;2023-02-07T13:24:09;4.80;99.90
11126;DHT22;5617;54.046;10.676;2023-02-07T13:26:21;4.80;99.90
11126;DHT22;5617;54.046;10.676;2023-02-07T13:28:38;4.80;99.90
11126;DHT22;5617;54.046;10.676;2023-02-07T13:30:51;4.90;99.90
11126;DHT22;5617;54.046;10.676;2023-02-07T13:33:03;4.90;99.90
11126;DHT22;5617;54.046;10.676;2023-02-07T13:35:15;4.80;99.90
11126;DHT22;5617;54.046;10.676;2023-02-07T13:37:33;4.80;99.90
11126;DHT22;5617;54.046;10.676;2023-02-07T13:39:47;4.70;99.90
11126;DHT22;5617;54.046;10.676;2023-02-07T13:42:08;4.60;99.90
11126;DHT22;5617;54.046;10.676;2023-02-07T13:44:23;4.50;99.90
11126;DHT22;5617;54.046;10.676;2023-02-07T13:46:52;4.50;99.90
11126;DHT22;5617;54.046;10.676;2023-02-07T13:49:07;4.50;99.90
11126;DHT22;5617;54.046;10.676;2023-02-07T13:51:26;4.40;99.90
11126;DHT22;5617;54.046;10.676;2023-02-07T13:53:43;4.30;99.90
11126;DHT22;5617;54.046;10.676;2023-02-07T13:55:54;4.30;99.90
11126;DHT22;5617;54.046;10.676;2023-02-07T13:58:03;4.30;99.90
11126;DHT22;5617;54.046;10.676;2023-02-07T14:00:31;4.20;99.90
11126;DHT22;5617;54.046;10.676;2023-02-07T14:02:45;4.00;99.90
11126;DHT22;5617;54.046;10.676;2023-02-07T14:04:55;4.00;99.90